Alvwood, Minnesota
Current Conditions -  °F | °C
As of 5:29 AM on Friday 19 Dec 2014 (Local Time) from KVWU Reporting Station
Overcast Overcast  
Wind Chill: 19°   Ceiling: 1600
Heat Index: 19°   Visibility: 10mi
Dew Point: 18°   Wind: 0mph
Humidity: 93%   Direction: NA
Pressure: 30.14"   Gusts: NA
Location:  47.7306°N, 94.3762°W
Report Text: KVWU 191129Z AUTO 00000KT 10SM OVC016 M07/M08 A3014 RMK AO2
Loading
Personal Weather Stations






























Interactive Weather Map New forecast layout! Learn more

10-Day Weather Forecast

Advertisements
Track Severe Weather on mobile